Time;durP1;ratioP1;P1;durP2;ratioP2;P2;SDS_P1;SDS_P2;PMS_P1;PMS_P2;Temp;Humidity;BMP_temperature;BMP_pressure;BME280_temperature;BME280_humidity;BME280_pressure;Samples;Min_cycle;Max_cycle;Signal;HPM_P1;HPM_P2
2022/05/25 00:01:09;;;;;;;3.93;2.13;;;;;;;21.41;42.94;101257.53;5024471;28;20112;-73
2022/05/25 00:03:36;;;;;;;3.97;2.53;;;;;;;20.99;43.90;101262.19;5035084;28;20060;-73
2022/05/25 00:06:04;;;;;;;3.40;2.27;;;;;;;21.25;43.29;101264.53;5047767;28;20477;-73
2022/05/25 00:08:30;;;;;;;3.93;2.00;;;;;;;21.15;43.15;101257.00;5033409;28;20101;-73
2022/05/25 00:10:56;;;;;;;3.00;1.97;;;;;;;21.26;43.33;101268.94;5033260;28;20049;-73
2022/05/25 00:13:23;;;;;;;2.30;1.87;;;;;;;21.35;43.05;101263.19;5032395;28;20030;-73
2022/05/25 00:15:49;;;;;;;2.93;2.10;;;;;;;21.32;42.94;101261.53;5031873;28;20017;-73
2022/05/25 00:18:14;;;;;;;2.67;1.80;;;;;;;20.83;44.04;101266.50;5031612;28;20474;-71
2022/05/25 00:20:40;;;;;;;5.50;2.27;;;;;;;21.32;43.37;101266.84;5034601;28;20401;-71
2022/05/25 00:23:05;;;;;;;2.67;1.83;;;;;;;20.94;44.23;101260.69;5051669;28;20025;-73
2022/05/25 00:25:35;;;;;;;3.40;2.30;;;;;;;21.04;44.01;101261.97;5051496;28;20392;-74
2022/05/25 00:28:04;;;;;;;4.63;2.50;;;;;;;21.24;43.79;101261.03;5052181;28;20076;-74
2022/05/25 00:30:29;;;;;;;2.67;2.20;;;;;;;20.84;44.44;101263.78;5030430;28;20030;-72
2022/05/25 00:32:57;;;;;;;6.57;2.90;;;;;;;20.87;44.68;101272.50;5031041;28;20623;-71
2022/05/25 00:35:25;;;;;;;4.07;2.40;;;;;;;20.88;44.30;101272.44;5031018;28;20029;-71
2022/05/25 00:37:51;;;;;;;4.57;2.63;;;;;;;21.13;44.58;101272.16;5031964;28;20056;-71
2022/05/25 00:40:38;;;;;;;6.30;2.33;;;;;;;21.37;43.74;101271.94;5030687;28;20025;-72
2022/05/25 00:43:05;;;;;;;3.70;2.40;;;;;;;21.23;44.73;101274.41;5031048;28;20068;-72
2022/05/25 00:45:33;;;;;;;6.17;2.20;;;;;;;20.88;44.89;101274.25;5024566;28;20407;-72
2022/05/25 00:48:00;;;;;;;3.57;2.50;;;;;;;21.09;44.74;101273.25;5030604;28;20037;-71
2022/05/25 00:50:26;;;;;;;4.40;2.90;;;;;;;21.34;44.30;101277.41;5029439;28;20057;-72
2022/05/25 00:52:52;;;;;;;6.80;2.30;;;;;;;19.49;48.87;101284.56;5032342;28;20171;-72
2022/05/25 00:55:28;;;;;;;5.77;2.30;;;;;;;19.91;48.22;101290.81;5033345;28;20025;-71
2022/05/25 00:57:56;;;;;;;6.20;2.50;;;;;;;20.22;47.63;101286.00;5032541;28;20029;-71
2022/05/25 01:00:25;;;;;;;6.67;2.20;;;;;;;20.80;46.75;101282.56;5029363;28;20059;-73
2022/05/25 01:02:56;;;;;;;9.10;2.50;;;;;;;19.71;49.88;101291.59;5031077;28;20030;-73
2022/05/25 01:05:28;;;;;;;5.32;2.58;;;;;;;20.67;47.30;101288.41;5032400;28;20029;-73
2022/05/25 01:08:02;;;;;;;8.67;2.93;;;;;;;20.38;47.96;101302.13;5031198;28;20064;-73
2022/05/25 01:11:02;;;;;;;8.37;3.00;;;;;;;20.66;47.24;101291.13;5013416;28;20037;-74
2022/05/25 01:13:38;;;;;;;8.60;3.00;;;;;;;20.57;47.88;101289.75;5032374;28;20025;-72
2022/05/25 01:16:28;;;;;;;6.07;3.10;;;;;;;20.38;48.31;101289.72;5028742;28;20120;-71
2022/05/25 01:19:15;;;;;;;13.47;3.47;;;;;;;19.39;50.33;101293.78;5032008;28;20056;-73
2022/05/25 01:21:48;;;;;;;5.50;2.93;;;;;;;20.75;47.70;101280.13;5030900;28;20079;-71
2022/05/25 01:24:17;;;;;;;;;;;;;;;20.33;48.51;101294.34;5030450;28;20056;-73
2022/05/25 01:27:06;;;;;;;10.13;3.77;;;;;;;20.32;48.86;101288.19;5031673;28;20004;-74
2022/05/25 01:29:56;;;;;;;9.60;3.60;;;;;;;20.11;49.47;101290.00;5030064;28;20062;-73
2022/05/25 01:32:24;;;;;;;4.43;2.93;;;;;;;20.50;48.85;101283.84;5029700;28;20065;-71
2022/05/25 01:35:13;;;;;;;13.70;4.07;;;;;;;20.55;47.89;101293.41;5064126;28;20202;-71
2022/05/25 01:37:38;;;;;;;14.07;5.30;;;;;;;20.26;48.52;101295.56;5062198;28;20029;-73
2022/05/25 01:40:25;;;;;;;5.47;3.53;;;;;;;19.86;49.40;101290.16;5032493;28;20355;-73
2022/05/25 01:42:57;;;;;;;7.50;3.60;;;;;;;20.55;48.08;101288.09;5032033;28;20045;-73
2022/05/25 01:45:29;;;;;;;6.40;4.33;;;;;;;20.08;49.43;101291.91;5029255;28;20511;-73
2022/05/25 01:47:58;;;;;;;9.07;4.63;;;;;;;19.37;51.66;101300.06;5021095;28;20034;-74
2022/05/25 01:50:32;;;;;;;9.63;4.33;;;;;;;19.08;51.83;101297.66;5014931;28;20101;-74
2022/05/25 01:53:01;;;;;;;14.80;5.17;;;;;;;19.56;50.94;101302.84;5047855;28;20030;-74
2022/05/25 01:55:32;;;;;;;8.57;4.77;;;;;;;20.53;48.58;101295.28;5015820;28;20026;-73
2022/05/25 01:58:04;;;;;;;13.23;4.77;;;;;;;20.16;48.38;101301.25;5028298;28;20062;-73
2022/05/25 02:00:33;;;;;;;10.20;5.05;;;;;;;20.21;48.84;101302.84;5027098;28;20088;-74
2022/05/25 02:05:56;;;;;;;13.37;5.70;;;;;;;19.23;52.05;101308.56;5015268;28;20045;-73
2022/05/25 02:08:42;;;;;;;10.97;5.77;;;;;;;20.02;49.56;101306.31;5017893;28;20033;-74
2022/05/25 02:11:14;;;;;;;9.03;5.30;;;;;;;20.49;48.52;101306.03;5015595;28;20032;-74
2022/05/25 02:13:54;;;;;;;16.10;6.07;;;;;;;20.03;49.68;101308.03;5023574;28;20465;-74
2022/05/25 02:17:02;;;;;;;10.77;6.37;;;;;;;20.15;48.76;101306.63;5034638;28;20026;-74
2022/05/25 02:19:43;;;;;;;11.07;6.57;;;;;;;20.26;48.82;101311.47;5034637;28;20048;-74
2022/05/25 02:22:24;;;;;;;17.00;6.80;;;;;;;19.85;50.37;101314.09;5034103;28;20036;-72
2022/05/25 02:24:57;;;;;;;12.80;6.63;;;;;;;20.44;48.41;101308.03;5035175;28;20021;-72
2022/05/25 02:27:32;;;;;;;16.07;6.57;;;;;;;20.37;48.29;101308.38;5034623;28;20381;-72
2022/05/25 02:30:03;;;;;;;16.53;6.80;;;;;;;20.65;47.74;101308.03;5032593;28;20040;-72
2022/05/25 02:32:35;;;;;;;13.30;7.00;;;;;;;20.19;49.33;101313.53;5034763;28;20076;-74
2022/05/25 02:35:02;;;;;;;15.53;7.17;;;;;;;20.95;46.58;101323.50;5033150;28;20037;-74
2022/05/25 02:37:31;;;;;;;13.43;7.07;;;;;;;20.80;47.26;101325.06;5026741;28;20072;-74
2022/05/25 02:39:59;;;;;;;14.73;6.67;;;;;;;20.61;46.94;101325.03;5013288;28;20037;-74
2022/05/25 02:42:24;;;;;;;12.33;6.90;;;;;;;20.78;46.73;101322.47;5057888;28;20036;-74
2022/05/25 02:44:50;;;;;;;13.53;6.47;;;;;;;20.77;46.97;101320.78;5033673;28;20212;-72
2022/05/25 02:47:15;;;;;;;12.97;7.27;;;;;;;19.99;48.90;101336.47;5033018;28;20087;-73
2022/05/25 02:49:41;;;;;;;15.47;8.07;;;;;;;20.23;49.15;101324.88;5033198;28;20048;-72
2022/05/25 02:52:08;;;;;;;15.77;7.33;;;;;;;20.30;48.38;101321.03;5033230;28;20056;-72
2022/05/25 02:54:34;;;;;;;12.60;7.83;;;;;;;19.98;49.30;101333.88;5034566;28;20091;-71
2022/05/25 02:57:00;;;;;;;14.17;7.30;;;;;;;19.98;48.62;101326.78;5031851;28;20478;-72
2022/05/25 02:59:25;;;;;;;15.63;6.83;;;;;;;20.47;48.05;101329.13;5033448;28;20394;-72
2022/05/25 03:01:51;;;;;;;12.13;6.47;;;;;;;19.90;49.37;101339.50;5034038;28;20489;-74
2022/05/25 03:04:16;;;;;;;12.30;7.60;;;;;;;20.00;49.10;101324.06;5034612;28;20469;-74
2022/05/25 03:06:41;;;;;;;13.93;7.17;;;;;;;19.98;49.48;101341.84;5034533;28;20025;-72
2022/05/25 03:09:07;;;;;;;11.67;7.33;;;;;;;18.38;55.64;101338.97;5032557;28;20037;-72
2022/05/25 03:11:32;;;;;;;13.10;7.40;;;;;;;20.00;50.19;101346.16;5033006;28;20366;-72
2022/05/25 03:13:59;;;;;;;13.00;7.13;;;;;;;19.28;51.94;101346.34;5034138;28;20032;-72
2022/05/25 03:16:25;;;;;;;17.27;8.67;;;;;;;19.24;52.43;101353.53;5032996;28;20021;-72
2022/05/25 03:18:51;;;;;;;12.60;7.97;;;;;;;19.17;51.65;101356.50;5034237;28;20056;-71
2022/05/25 03:21:18;;;;;;;16.57;7.73;;;;;;;19.64;50.93;101354.63;5034023;28;20486;-72
2022/05/25 03:23:43;;;;;;;22.43;8.30;;;;;;;19.51;51.63;101353.41;5031638;28;20111;-72
2022/05/25 03:26:09;;;;;;;14.97;8.00;;;;;;;18.85;54.10;101358.50;5032948;28;20057;-72
2022/05/25 03:28:35;;;;;;;17.77;8.70;;;;;;;19.70;50.95;101353.56;5033163;28;20057;-72
2022/05/25 03:31:00;;;;;;;17.43;8.17;;;;;;;19.90;50.13;101370.47;5032817;28;20040;-72
2022/05/25 03:33:26;;;;;;;15.70;7.30;;;;;;;19.70;51.12;101369.47;5065935;28;20459;-72
2022/05/25 03:35:51;;;;;;;16.90;8.50;;;;;;;19.09;52.93;101368.22;5064720;28;20104;-72
2022/05/25 03:38:16;;;;;;;15.97;8.33;;;;;;;18.76;53.70;101371.16;5031403;28;20029;-73
2022/05/25 03:40:42;;;;;;;13.23;7.80;;;;;;;18.79;54.36;101370.19;5032002;28;20024;-74
2022/05/25 03:43:12;;;;;;;15.63;8.73;;;;;;;18.58;56.06;101377.97;5032071;28;20167;-74
2022/05/25 03:45:37;;;;;;;14.40;7.67;;;;;;;18.92;53.40;101370.66;5032822;28;20036;-74
2022/05/25 03:48:07;;;;;;;18.63;8.30;;;;;;;18.97;54.01;101373.97;5032547;28;20025;-72
2022/05/25 03:50:37;;;;;;;15.80;8.63;;;;;;;19.40;52.33;101375.03;5033048;28;20045;-74
2022/05/25 03:53:02;;;;;;;15.67;8.67;;;;;;;18.43;56.51;101373.22;5033058;28;20061;-74
2022/05/25 03:55:28;;;;;;;15.23;9.00;;;;;;;19.20;53.30;101375.78;5031922;28;20131;-73
2022/05/25 03:57:53;;;;;;;17.17;9.00;;;;;;;18.71;54.86;101373.13;5032620;28;20033;-74
2022/05/25 04:00:19;;;;;;;18.33;8.43;;;;;;;19.35;52.88;101379.63;5033017;28;20034;-74
2022/05/25 04:02:46;;;;;;;17.73;8.03;;;;;;;19.10;52.36;101375.25;5045160;28;20092;-75
2022/05/25 04:05:12;;;;;;;15.73;9.67;;;;;;;18.52;54.70;101382.63;5052687;28;20388;-74
2022/05/25 04:07:43;;;;;;;19.90;9.77;;;;;;;18.79;54.99;101379.00;5031873;28;20028;-74
2022/05/25 04:10:13;;;;;;;18.50;9.03;;;;;;;18.62;55.63;101381.38;5033481;28;20108;-74
2022/05/25 04:12:40;;;;;;;13.13;9.33;;;;;;;19.12;53.15;101373.44;5031851;28;20036;-74
2022/05/25 04:15:07;;;;;;;28.83;11.97;;;;;;;19.59;51.14;101376.97;5031497;28;20018;-75
2022/05/25 04:17:33;;;;;;;18.97;9.70;;;;;;;18.80;54.25;101388.66;5030882;28;20033;-74
2022/05/25 04:19:59;;;;;;;14.73;8.77;;;;;;;19.50;52.96;101384.34;5046138;28;20017;-75
2022/05/25 04:22:24;;;;;;;20.60;9.90;;;;;;;19.92;51.68;101384.53;5031360;28;20033;-74
2022/05/25 04:24:50;;;;;;;16.70;10.40;;;;;;;19.32;54.35;101385.06;5031293;28;20035;-74
2022/05/25 04:27:16;;;;;;;14.33;8.90;;;;;;;18.67;55.78;101379.44;5030361;28;20029;-74
2022/05/25 04:29:41;;;;;;;13.30;8.70;;;;;;;19.33;53.19;101386.81;5032746;28;20064;-73
2022/05/25 04:32:07;;;;;;;18.53;8.70;;;;;;;18.00;59.29;101385.22;5028715;28;20092;-74
2022/05/25 04:34:33;;;;;;;15.57;8.37;;;;;;;19.54;52.74;101387.75;5027500;28;20665;-74
2022/05/25 04:37:48;;;;;;;13.77;7.93;;;;;;;20.00;50.71;101382.41;5028824;28;20026;-75
2022/05/25 04:39:44;;;;;;;13.97;7.57;;;;;;;18.94;54.30;101380.25;5030332;28;20040;-75
2022/05/25 04:42:10;;;;;;;14.33;7.77;;;;;;;19.48;53.12;101375.59;5032601;28;20021;-74
2022/05/25 04:44:36;;;;;;;14.67;7.53;;;;;;;19.72;53.02;101375.56;5032833;28;20029;-74
2022/05/25 04:47:01;;;;;;;11.27;7.40;;;;;;;19.65;51.61;101376.72;5032012;28;20033;-74
2022/05/25 04:49:26;;;;;;;14.13;7.53;;;;;;;19.60;53.41;101379.53;5032342;28;20029;-74
2022/05/25 04:51:52;;;;;;;10.80;7.10;;;;;;;19.05;54.14;101376.34;5031877;28;20036;-74
2022/05/25 04:54:18;;;;;;;14.57;8.00;;;;;;;19.60;52.75;101379.53;5040553;28;20033;-74
2022/05/25 04:59:27;;;;;;;14.00;7.33;;;;;;;18.94;55.64;101380.25;5032752;28;20041;-74
2022/05/25 05:01:52;;;;;;;13.90;8.07;;;;;;;19.86;52.29;101384.78;5030148;28;20025;-74
2022/05/25 05:04:18;;;;;;;15.33;8.20;;;;;;;19.96;51.49;101373.75;5032203;28;20025;-74
2022/05/25 05:06:44;;;;;;;14.43;7.67;;;;;;;19.13;55.41;101375.16;5031386;28;20022;-74
2022/05/25 05:09:10;;;;;;;16.07;7.47;;;;;;;18.97;55.56;101372.22;5031287;28;20128;-74
2022/05/25 05:11:37;;;;;;;20.50;8.57;;;;;;;18.93;55.89;101373.25;5016997;28;20108;-74
2022/05/25 05:14:05;;;;;;;12.10;8.23;;;;;;;19.41;54.38;101383.84;5032762;28;20033;-74
2022/05/25 05:16:32;;;;;;;13.03;7.73;;;;;;;20.01;52.65;101384.16;5032053;28;20120;-74
2022/05/25 05:18:57;;;;;;;17.50;8.73;;;;;;;19.79;51.76;101384.13;5064155;28;20038;-74
2022/05/25 05:21:22;;;;;;;16.47;7.60;;;;;;;20.18;52.01;101383.44;5030723;28;20028;-74
2022/05/25 05:23:48;;;;;;;20.13;8.07;;;;;;;20.37;51.27;101375.56;5030651;28;20053;-74
2022/05/25 05:26:13;;;;;;;16.80;9.37;;;;;;;19.91;52.49;101382.81;5032079;28;20116;-74
2022/05/25 05:28:41;;;;;;;16.70;8.80;;;;;;;20.25;50.39;101386.72;5031428;28;20045;-74
2022/05/25 05:31:08;;;;;;;16.33;9.03;;;;;;;20.86;49.38;101383.25;5031898;28;20033;-74
2022/05/25 05:33:33;;;;;;;22.67;9.10;;;;;;;19.94;52.34;101382.69;5031839;28;20029;-75
2022/05/25 05:36:09;;;;;;;15.97;8.60;;;;;;;20.29;51.10;101385.66;5028868;28;20067;-74
2022/05/25 05:38:42;;;;;;;18.30;8.20;;;;;;;20.78;49.72;101386.22;5030368;28;20052;-74
2022/05/25 05:41:11;;;;;;;16.00;8.33;;;;;;;20.05;51.85;101391.06;5030963;28;20500;-74
2022/05/25 05:43:37;;;;;;;17.05;9.13;;;;;;;22.03;47.13;101385.75;5035424;28;20021;-74
2022/05/25 05:46:03;;;;;;;13.40;7.60;;;;;;;22.11;46.05;101396.03;5050878;28;20473;-74
2022/05/25 05:48:30;;;;;;;19.20;9.57;;;;;;;19.40;52.89;101392.72;5050535;28;20052;-73
2022/05/25 05:50:56;;;;;;;21.92;10.23;;;;;;;20.46;51.27;101391.13;5046438;28;20125;-74
2022/05/25 05:53:24;;;;;;;16.52;9.90;;;;;;;20.59;50.07;101390.59;5029935;28;20488;-75
2022/05/25 05:55:50;;;;;;;19.25;9.13;;;;;;;21.17;49.15;101393.34;5031923;28;20156;-74
2022/05/25 05:58:16;;;;;;;18.52;10.25;;;;;;;20.14;51.62;101395.13;5030110;28;20041;-73
2022/05/25 06:00:41;;;;;;;24.10;11.98;;;;;;;19.89;53.23;101405.88;5035814;28;20059;-74
2022/05/25 06:03:07;;;;;;;21.00;10.80;;;;;;;21.28;49.19;101397.31;5033782;28;20024;-73
2022/05/25 06:05:33;;;;;;;23.35;11.52;;;;;;;21.63;48.23;101390.38;5030485;28;20398;-74
2022/05/25 06:08:11;;;;;;;18.83;11.65;;;;;;;21.76;47.23;101401.31;5031797;28;20493;-74
2022/05/25 06:10:37;;;;;;;22.60;11.98;;;;;;;20.57;49.75;101403.09;5030581;28;20068;-73
2022/05/25 06:13:03;;;;;;;22.35;12.55;;;;;;;21.54;47.58;101405.91;5029197;28;20064;-74
2022/05/25 06:20:57;;;;;;;21.08;12.45;;;;;;;21.73;47.63;101404.09;5042642;28;20436;-73
2022/05/25 06:23:22;;;;;;;27.15;13.50;;;;;;;21.27;48.59;101406.22;5031065;28;20025;-73
2022/05/25 06:25:48;;;;;;;25.52;12.95;;;;;;;22.94;44.97;101411.41;5030848;28;20064;-73
2022/05/25 06:28:13;;;;;;;23.52;11.70;;;;;;;21.26;49.10;101408.00;5031128;28;20068;-73
2022/05/25 06:30:38;;;;;;;22.20;12.57;;;;;;;22.93;43.65;101412.34;5033772;28;20102;-73
2022/05/25 06:33:05;;;;;;;21.55;12.57;;;;;;;22.73;44.51;101414.25;5037054;28;20108;-73
2022/05/25 06:35:33;;;;;;;25.27;11.98;;;;;;;22.77;43.54;101414.97;5042218;28;20029;-73
2022/05/25 06:37:58;;;;;;;18.25;11.15;;;;;;;21.54;46.76;101421.84;5022943;28;20495;-74
2022/05/25 06:40:23;;;;;;;18.23;11.35;;;;;;;23.47;43.08;101426.34;5028904;28;20121;-73
2022/05/25 06:42:51;;;;;;;21.00;11.88;;;;;;;23.42;42.48;101431.06;5033713;28;20024;-74
2022/05/25 06:45:17;;;;;;;19.63;11.57;;;;;;;23.11;43.77;101430.03;5034839;28;20481;-73
2022/05/25 06:47:43;;;;;;;19.55;11.98;;;;;;;23.79;42.50;101430.81;5032783;28;20227;-74
2022/05/25 06:50:09;;;;;;;17.15;11.38;;;;;;;24.85;40.04;101427.34;5033762;28;20037;-73
2022/05/25 06:52:34;;;;;;;14.88;10.75;;;;;;;25.79;37.56;101434.00;5044834;28;20024;-74
2022/05/25 06:54:59;;;;;;;14.55;10.10;;;;;;;24.84;39.90;101428.31;5036154;28;20390;-73
2022/05/25 06:57:25;;;;;;;17.20;11.02;;;;;;;24.49;40.08;101435.72;5032503;28;20068;-73
2022/05/25 06:59:51;;;;;;;20.65;10.80;;;;;;;23.95;42.22;101447.72;5033894;28;20030;-73
2022/05/25 07:02:16;;;;;;;21.10;10.38;;;;;;;23.15;42.47;101444.06;5065769;28;20503;-73
2022/05/25 07:04:42;;;;;;;13.43;9.85;;;;;;;23.93;42.71;101446.94;5032144;28;20166;-72
2022/05/25 07:07:07;;;;;;;14.38;10.32;;;;;;;22.63;44.00;101450.31;5032886;28;20501;-73
2022/05/25 07:09:36;;;;;;;15.55;9.98;;;;;;;22.94;43.07;101451.38;5028510;28;20029;-73
2022/05/25 07:12:02;;;;;;;18.70;9.73;;;;;;;23.63;42.62;101453.03;5033182;28;20104;-73
2022/05/25 07:14:27;;;;;;;18.60;10.60;;;;;;;23.25;43.01;101452.47;5033314;28;20156;-73
2022/05/25 07:16:54;;;;;;;17.52;10.00;;;;;;;22.83;43.85;101452.81;5034471;28;20151;-73
2022/05/25 07:19:20;;;;;;;12.38;9.63;;;;;;;22.41;45.45;101453.19;5063220;28;20040;-73
2022/05/25 07:21:45;;;;;;;12.70;9.40;;;;;;;23.67;42.71;101464.38;5033180;28;20404;-73
2022/05/25 07:24:10;;;;;;;18.67;10.70;;;;;;;25.16;40.34;101459.38;5033229;28;20037;-73
2022/05/25 07:26:36;;;;;;;20.70;11.48;;;;;;;25.64;39.07;101453.75;5037821;28;20033;-73
2022/05/25 07:29:03;;;;;;;12.60;10.18;;;;;;;27.45;36.52;101458.59;5032030;28;20071;-73
2022/05/25 07:31:38;;;;;;;14.10;9.27;;;;;;;25.99;36.92;101464.81;5031818;28;20053;-73
2022/05/25 07:34:16;;;;;;;10.70;7.72;;;;;;;25.70;37.69;101466.72;5033432;28;20044;-73
2022/05/25 07:36:43;;;;;;;16.48;8.65;;;;;;;23.58;42.03;101465.75;5032297;28;20033;-73
2022/05/25 07:39:13;;;;;;;13.23;8.50;;;;;;;27.49;35.74;101448.47;5032227;28;20028;-72
2022/05/25 07:41:43;;;;;;;15.02;8.85;;;;;;;28.41;34.19;101456.94;5032436;28;20087;-73
2022/05/25 07:44:14;;;;;;;13.05;8.23;;;;;;;27.91;34.15;101471.31;5049245;28;20021;-74
2022/05/25 07:46:39;;;;;;;17.52;8.05;;;;;;;26.49;35.38;101472.31;5030247;28;20056;-73
2022/05/25 07:49:05;;;;;;;12.88;7.07;;;;;;;26.62;35.61;101469.66;5031485;28;20493;-73
2022/05/25 07:51:30;;;;;;;12.07;6.65;;;;;;;26.39;35.34;101470.25;5032954;28;20072;-73
2022/05/25 07:53:58;;;;;;;11.55;5.63;;;;;;;28.50;31.94;101472.38;5033363;28;20029;-73
2022/05/25 07:56:32;;;;;;;6.75;5.28;;;;;;;27.41;33.44;101467.81;5031589;28;20033;-73
2022/05/25 07:59:00;;;;;;;8.05;5.47;;;;;;;28.19;32.44;101466.63;5032865;28;20037;-73
2022/05/25 08:06:58;;;;;;;10.27;4.80;;;;;;;30.49;29.55;101479.94;5033521;28;20032;-72
2022/05/25 08:09:25;;;;;;;6.50;4.63;;;;;;;29.10;29.99;101483.06;5030228;28;20022;-73
2022/05/25 08:11:50;;;;;;;6.93;4.32;;;;;;;29.95;29.04;101465.53;5034561;28;20025;-73
2022/05/25 08:14:16;;;;;;;5.28;3.88;;;;;;;31.16;27.38;101477.84;5035545;28;20018;-73
2022/05/25 08:16:41;;;;;;;6.03;3.90;;;;;;;30.37;28.56;101465.63;5036319;28;20446;-73
2022/05/25 08:19:06;;;;;;;5.93;3.33;;;;;;;32.24;25.92;101473.59;5050895;28;20056;-73
2022/05/25 08:21:32;;;;;;;9.43;3.63;;;;;;;30.71;27.42;101470.88;5040648;28;20525;-73
2022/05/25 08:23:57;;;;;;;7.07;3.40;;;;;;;30.22;28.39;101481.25;5033090;28;20520;-73
2022/05/25 08:26:22;;;;;;;5.20;3.60;;;;;;;28.99;29.62;101477.66;5029309;28;20448;-73
2022/05/25 08:28:48;;;;;;;6.93;3.42;;;;;;;27.76;30.97;101485.88;5030836;28;20555;-73
2022/05/25 08:31:13;;;;;;;10.23;3.30;;;;;;;27.87;31.24;101480.56;5031487;28;20611;-73
2022/05/25 08:33:38;;;;;;;3.97;2.80;;;;;;;28.33;30.60;101470.09;5031251;28;20017;-73
2022/05/25 08:36:04;;;;;;;5.05;2.00;;;;;;;25.95;32.67;101476.69;5030861;28;20022;-73
2022/05/25 08:38:29;;;;;;;5.60;2.30;;;;;;;24.80;34.62;101484.69;5024322;28;20025;-73
2022/05/25 08:40:56;;;;;;;6.65;2.22;;;;;;;28.60;29.22;101478.78;5032510;28;20120;-72
2022/05/25 08:43:31;;;;;;;6.07;2.50;;;;;;;29.64;28.28;101472.56;5029692;28;20025;-73
2022/05/25 08:46:01;;;;;;;3.03;1.70;;;;;;;30.67;27.23;101461.34;5030867;28;20035;-74
2022/05/25 08:48:27;;;;;;;4.45;1.50;;;;;;;31.06;25.44;101468.81;5028377;28;20124;-72
2022/05/25 08:50:58;;;;;;;4.45;1.23;;;;;;;29.97;25.61;101479.75;5030129;28;20056;-73
2022/05/25 08:53:25;;;;;;;4.97;1.10;;;;;;;27.91;28.41;101479.38;5028317;28;20034;-73
2022/05/25 08:56:16;;;;;;;4.10;1.13;;;;;;;29.70;26.84;101469.34;5063266;28;20563;-73
2022/05/25 08:59:04;;;;;;;2.97;1.48;;;;;;;26.37;30.29;101474.84;5011272;28;20489;-72
2022/05/25 09:01:41;;;;;;;1.10;0.95;;;;;;;27.98;27.58;101470.88;5048724;28;20374;-72
2022/05/25 09:04:25;;;;;;;3.63;1.20;;;;;;;25.54;30.72;101478.41;5027573;28;20099;-71
2022/05/25 09:06:56;;;;;;;5.55;1.05;;;;;;;26.39;29.55;101480.09;5031498;28;20440;-73
2022/05/25 09:09:31;;;;;;;3.78;1.10;;;;;;;25.70;29.91;101478.28;5032316;28;20029;-71
2022/05/25 09:12:06;;;;;;;3.95;0.90;;;;;;;26.47;29.02;101488.50;5032023;28;20029;-72
2022/05/25 09:14:41;;;;;;;5.45;1.27;;;;;;;28.46;27.17;101487.00;5029483;28;20366;-73
2022/05/25 09:17:16;;;;;;;2.58;0.70;;;;;;;30.76;24.52;101479.44;5030984;28;20021;-72
2022/05/25 09:19:46;;;;;;;5.68;1.08;;;;;;;30.96;23.62;101483.09;5030986;28;20091;-73
2022/05/25 09:22:16;;;;;;;1.73;0.60;;;;;;;29.18;25.39;101486.00;5031598;28;20447;-72
2022/05/25 09:24:42;;;;;;;3.38;0.70;;;;;;;28.66;26.26;101487.34;5029649;28;20069;-72
2022/05/25 09:27:12;;;;;;;2.83;0.60;;;;;;;29.14;25.32;101491.72;5031423;28;20556;-72
2022/05/25 09:29:37;;;;;;;0.82;0.57;;;;;;;26.79;27.17;101503.41;5031224;28;20056;-72
2022/05/25 09:32:35;;;;;;;3.03;0.60;;;;;;;28.09;26.35;101497.84;5032191;28;20026;-71
2022/05/25 09:35:08;;;;;;;5.13;0.43;;;;;;;29.53;24.14;101503.91;5062837;28;20558;-71
2022/05/25 09:37:44;;;;;;;1.70;0.50;;;;;;;27.73;26.43;101511.13;5032176;28;20025;-72
2022/05/25 09:40:19;;;;;;;2.88;0.57;;;;;;;26.24;29.11;101508.78;5030483;28;20029;-71
2022/05/25 09:42:50;;;;;;;2.00;0.50;;;;;;;26.31;28.34;101503.88;5029958;28;20022;-72
2022/05/25 09:45:15;;;;;;;1.73;0.50;;;;;;;25.94;29.15;101511.59;5030086;28;20057;-72
2022/05/25 09:47:44;;;;;;;1.40;0.57;;;;;;;23.65;31.37;101520.50;5032196;28;20540;-71
2022/05/25 09:50:35;;;;;;;2.78;0.80;;;;;;;24.02;30.03;101521.19;5031186;28;20079;-72
2022/05/25 09:53:04;;;;;;;1.00;0.50;;;;;;;25.20;28.56;101517.91;5027693;28;20033;-72
2022/05/25 09:55:35;;;;;;;3.13;0.57;;;;;;;24.37;30.48;101523.66;5031899;28;20033;-72
2022/05/25 09:58:11;;;;;;;2.50;0.60;;;;;;;24.15;31.52;101515.16;5030380;28;20040;-72
2022/05/25 10:00:36;;;;;;;7.00;0.80;;;;;;;25.53;29.00;101508.78;5012054;28;20026;-72
2022/05/25 10:03:06;;;;;;;1.65;0.70;;;;;;;26.22;28.06;101521.44;5026524;28;20052;-71
2022/05/25 10:05:52;;;;;;;4.10;0.80;;;;;;;24.76;29.22;101524.13;5011936;28;20028;-72
2022/05/25 10:08:28;;;;;;;2.25;0.60;;;;;;;24.99;29.30;101519.22;5014573;28;20490;-72
2022/05/25 10:10:57;;;;;;;3.45;0.98;;;;;;;24.85;30.29;101523.59;5015039;28;20022;-71
2022/05/25 10:13:43;;;;;;;1.95;0.90;;;;;;;24.96;30.21;101519.41;5033730;28;20025;-72
2022/05/25 10:16:29;;;;;;;2.35;0.30;;;;;;;23.86;30.65;101526.50;5035033;28;20182;-71
2022/05/25 10:18:59;;;;;;;2.00;0.65;;;;;;;23.93;30.99;101528.84;5030096;28;20033;-72
2022/05/25 10:21:36;;;;;;;3.53;0.70;;;;;;;23.74;30.54;101528.97;5043461;28;20444;-71
2022/05/25 10:24:12;;;;;;;1.33;0.60;;;;;;;23.88;30.27;101535.28;5053327;28;20056;-72
2022/05/25 10:26:45;;;;;;;1.60;0.43;;;;;;;24.38;30.02;101529.88;5034463;28;20036;-71
2022/05/25 10:36:45;;;;;;;3.05;0.95;;;;;;;25.53;28.58;101530.19;5028589;28;20494;-71
2022/05/25 10:37:35;;;;;;;6.32;0.60;;;;;;;28.53;25.22;101515.16;5035428;28;20034;-72
2022/05/25 10:40:05;;;;;;;3.08;0.70;;;;;;;28.56;25.06;101528.38;5034288;28;20065;-72
2022/05/25 10:42:44;;;;;;;2.50;0.65;;;;;;;29.00;24.52;101530.47;5033686;28;20385;-71
2022/05/25 10:45:32;;;;;;;2.83;0.70;;;;;;;28.93;24.67;101525.59;5031813;28;20106;-72
2022/05/25 10:48:46;;;;;;;2.63;0.50;;;;;;;28.42;23.84;101524.00;5031616;28;20025;-71
2022/05/25 10:51:24;;;;;;;1.73;0.63;;;;;;;28.05;23.68;101515.16;5027303;28;20565;-72
2022/05/25 10:56:59;;;;;;;1.27;0.43;;;;;;;27.61;24.32;101532.63;5031396;28;20048;-72
2022/05/25 10:59:34;;;;;;;3.80;0.50;;;;;;;26.23;26.20;101529.34;5041754;28;20091;-72
2022/05/25 11:02:21;;;;;;;2.22;0.50;;;;;;;27.22;26.07;101528.13;5054454;28;20107;-70
2022/05/25 11:05:34;;;;;;;1.08;0.40;;;;;;;27.83;24.61;101538.16;5030790;28;20029;-72
2022/05/25 11:08:18;;;;;;;4.13;0.20;;;;;;;25.49;26.45;101526.00;5027073;28;20037;-73
2022/05/25 11:10:56;;;;;;;0.73;0.20;;;;;;;26.77;26.59;101538.34;5065250;28;20476;-70
2022/05/25 11:13:30;;;;;;;0.82;0.30;;;;;;;28.38;23.62;101510.94;5032886;28;20421;-72
2022/05/25 11:16:27;;;;;;;4.25;0.50;;;;;;;27.13;25.09;101509.97;5063318;28;20149;-70
2022/05/25 11:19:17;;;;;;;3.05;0.25;;;;;;;28.17;24.36;101514.25;5039715;28;20025;-72
2022/05/25 11:22:07;;;;;;;1.35;0.60;;;;;;;27.87;25.63;101507.44;5031181;28;20029;-72
2022/05/25 11:24:46;;;;;;;4.00;0.60;;;;;;;28.01;25.57;101516.34;5044838;28;20025;-70
2022/05/25 11:27:46;;;;;;;2.75;0.45;;;;;;;27.90;25.54;101512.59;5047212;28;20103;-71
2022/05/25 11:30:44;;;;;;;2.00;0.35;;;;;;;27.23;25.93;101519.09;5032204;28;20102;-70
2022/05/25 11:33:39;;;;;;;1.60;0.43;;;;;;;27.59;26.35;101514.81;5026388;28;20485;-72
2022/05/25 11:36:28;;;;;;;4.32;0.77;;;;;;;27.29;26.13;101512.44;4976218;28;20489;-71
2022/05/25 11:39:30;;;;;;;2.40;0.82;;;;;;;25.18;28.55;101530.53;5030462;28;20129;-72
2022/05/25 11:42:20;;;;;;;2.17;0.73;;;;;;;24.40;30.16;101514.63;5037173;28;20025;-70
2022/05/25 11:44:57;;;;;;;3.10;0.50;;;;;;;25.05;28.72;101525.06;5032501;28;20072;-70
2022/05/25 11:47:41;;;;;;;3.25;0.60;;;;;;;24.87;28.73;101510.97;5023781;28;20111;-71
2022/05/25 11:50:25;;;;;;;2.45;0.77;;;;;;;25.70;28.91;101512.22;5031406;28;20044;-71
2022/05/25 11:53:12;;;;;;;4.53;0.70;;;;;;;24.81;29.79;101516.72;5031930;28;20104;-71
2022/05/25 11:56:27;;;;;;;5.13;1.15;;;;;;;25.74;28.93;101513.75;5048768;28;20030;-71
2022/05/25 11:59:32;;;;;;;3.83;1.08;;;;;;;26.15;28.63;101515.59;5027047;28;20033;-70
2022/05/25 12:02:16;;;;;;;7.00;0.73;;;;;;;26.21;29.19;101499.16;5031629;28;20469;-70
2022/05/25 12:05:02;;;;;;;4.22;0.90;;;;;;;27.93;26.95;101501.63;5029345;28;20366;-71